Time;durP1;ratioP1;P1;durP2;ratioP2;P2;SDS_P1;SDS_P2;PMS_P1;PMS_P2;Temp;Humidity;BMP_temperature;BMP_pressure;BME280_temperature;BME280_humidity;BME280_pressure;Samples;Min_cycle;Max_cycle;Signal;HPM_P1;HPM_P2
2021/12/12 00:01:36;;;;;;;95.63;54.83;;;3.60;99.90;;;;;;5104962;28;20043;-78
2021/12/12 00:04:13;;;;;;;102.80;55.42;;;3.60;99.90;;;;;;5092919;28;20208;-77
2021/12/12 00:06:46;;;;;;;94.72;55.28;;;3.60;99.90;;;;;;5092315;28;20397;-76
2021/12/12 00:09:25;;;;;;;94.47;55.47;;;3.60;99.90;;;;;;5093247;28;20040;-77
2021/12/12 00:11:52;;;;;;;98.53;57.55;;;3.60;99.90;;;;;;5097181;28;20404;-78
2021/12/12 00:14:25;;;;;;;103.00;56.50;;;3.60;99.90;;;;;;5092922;28;20044;-77
2021/12/12 00:16:54;;;;;;;97.82;55.53;;;3.60;99.90;;;;;;5108347;28;20388;-76
2021/12/12 00:19:21;;;;;;;96.78;53.72;;;3.70;99.90;;;;;;5108165;28;20100;-76
2021/12/12 00:21:51;;;;;;;92.00;54.55;;;3.70;99.90;;;;;;5112752;28;20098;-78
2021/12/12 00:24:17;;;;;;;91.25;53.75;;;3.70;99.90;;;;;;5112659;28;20075;-76
2021/12/12 00:26:45;;;;;;;93.13;53.80;;;3.70;99.90;;;;;;5092501;28;20130;-77
2021/12/12 00:29:13;;;;;;;90.07;53.22;;;3.70;99.90;;;;;;5091473;28;20432;-78
2021/12/12 00:31:40;;;;;;;88.07;53.08;;;3.70;99.90;;;;;;5091511;28;20500;-76
2021/12/12 00:34:06;;;;;;;94.15;53.55;;;3.70;99.90;;;;;;5092566;28;20503;-78
2021/12/12 00:36:34;;;;;;;92.72;52.05;;;3.70;99.90;;;;;;5099043;28;20047;-77
2021/12/12 00:39:11;;;;;;;90.43;52.00;;;3.70;99.90;;;;;;5104607;28;20116;-77
2021/12/12 00:41:50;;;;;;;87.15;51.13;;;3.70;99.90;;;;;;5098656;28;20434;-76
2021/12/12 00:44:16;;;;;;;82.80;48.97;;;3.80;99.90;;;;;;5113169;28;20127;-77
2021/12/12 00:46:44;;;;;;;85.72;50.30;;;3.80;99.90;;;;;;5104753;28;20051;-78
2021/12/12 00:49:11;;;;;;;81.20;49.67;;;3.80;99.90;;;;;;5091796;28;20392;-78
2021/12/12 00:51:41;;;;;;;79.75;48.80;;;3.80;99.90;;;;;;5091780;28;20058;-78
2021/12/12 00:54:08;;;;;;;78.88;48.55;;;3.80;99.90;;;;;;5092918;28;20050;-78
2021/12/12 00:56:35;;;;;;;79.63;47.72;;;3.80;99.90;;;;;;5090957;28;20056;-76
2021/12/12 00:59:03;;;;;;;80.35;48.15;;;3.80;99.90;;;;;;5102411;28;20490;-77
2021/12/12 01:01:45;;;;;;;72.43;45.55;;;3.90;99.90;;;;;;5093838;28;20500;-73
2021/12/12 01:04:21;;;;;;;77.65;46.55;;;3.90;99.90;;;;;;5091551;28;20439;-78
2021/12/12 01:06:48;;;;;;;69.63;44.80;;;3.90;99.90;;;;;;5100592;28;20047;-77
2021/12/12 01:09:27;;;;;;;68.13;44.30;;;3.90;99.90;;;;;;5104482;28;20036;-78
2021/12/12 01:11:56;;;;;;;69.93;44.03;;;3.90;99.90;;;;;;5091136;28;20070;-76
2021/12/12 01:14:26;;;;;;;70.10;44.42;;;3.90;99.90;;;;;;5092496;28;20048;-76
2021/12/12 01:17:08;;;;;;;69.13;43.90;;;3.90;99.90;;;;;;5091683;28;20477;-78
2021/12/12 01:19:40;;;;;;;71.43;45.00;;;3.90;99.90;;;;;;5091651;28;20078;-77
2021/12/12 01:22:11;;;;;;;71.10;43.60;;;4.00;99.90;;;;;;5091966;28;20114;-78
2021/12/12 01:24:44;;;;;;;65.65;43.83;;;4.00;99.90;;;;;;5091736;28;20044;-79
2021/12/12 01:27:12;;;;;;;64.93;41.92;;;4.00;99.90;;;;;;5091856;28;20044;-78
2021/12/12 01:29:38;;;;;;;65.80;43.10;;;4.00;99.90;;;;;;5094012;28;20039;-77
2021/12/12 01:32:11;;;;;;;66.18;42.78;;;4.00;99.90;;;;;;5091901;28;20044;-78
2021/12/12 01:34:39;;;;;;;62.95;41.45;;;4.00;99.90;;;;;;5090908;28;20132;-78
2021/12/12 01:37:35;;;;;;;66.38;42.83;;;4.00;99.90;;;;;;5092114;28;20098;-76
2021/12/12 01:40:16;;;;;;;62.33;40.08;;;4.00;99.90;;;;;;5094636;28;20105;-78
2021/12/12 01:42:44;;;;;;;60.78;40.72;;;4.00;99.90;;;;;;5091238;28;20040;-78
2021/12/12 01:45:10;;;;;;;61.00;40.83;;;3.90;99.90;;;;;;5095299;28;20446;-77
2021/12/12 01:47:46;;;;;;;59.25;39.15;;;4.00;99.90;;;;;;5091492;28;20091;-77
2021/12/12 01:50:30;;;;;;;59.60;38.75;;;4.00;99.90;;;;;;5092620;28;20477;-77
2021/12/12 01:52:58;;;;;;;56.25;38.40;;;4.00;99.90;;;;;;5092722;28;20097;-78
2021/12/12 01:55:28;;;;;;;55.63;37.95;;;4.00;99.90;;;;;;5095648;28;20118;-78
2021/12/12 01:57:58;;;;;;;58.75;37.58;;;4.00;99.90;;;;;;5093928;28;20040;-77
2021/12/12 02:00:41;;;;;;;56.83;36.85;;;4.00;99.90;;;;;;5094356;28;20044;-76
2021/12/12 02:03:10;;;;;;;57.72;35.13;;;4.10;99.90;;;;;;5095502;28;20417;-78
2021/12/12 02:05:37;;;;;;;46.58;35.20;;;4.10;99.90;;;;;;5094848;28;20040;-74
2021/12/12 02:08:07;;;;;;;49.63;34.22;;;4.10;99.90;;;;;;5095000;28;20054;-77
2021/12/12 02:10:37;;;;;;;50.22;35.13;;;4.10;99.90;;;;;;5107386;28;20036;-77
2021/12/12 02:13:08;;;;;;;55.13;33.30;;;4.10;99.90;;;;;;5115670;28;20094;-76
2021/12/12 02:15:37;;;;;;;46.55;34.10;;;4.20;99.90;;;;;;5099647;28;20117;-79
2021/12/12 02:18:08;;;;;;;48.63;32.80;;;4.10;99.90;;;;;;5094750;28;20165;-78
2021/12/12 02:20:43;;;;;;;51.95;33.42;;;4.20;99.90;;;;;;5095407;28;20036;-78
2021/12/12 02:37:09;;;;;;;46.97;31.65;;;4.20;99.90;;;;;;5074707;28;20398;-79
2021/12/12 02:39:36;;;;;;;49.78;31.38;;;4.20;99.90;;;;;;5098458;28;20568;-81
2021/12/12 02:42:08;;;;;;;49.38;31.58;;;4.20;99.90;;;;;;5105223;28;20040;-81
2021/12/12 02:44:37;;;;;;;47.13;33.08;;;4.20;99.90;;;;;;5101246;28;20452;-81
2021/12/12 02:47:11;;;;;;;47.60;30.40;;;4.20;99.90;;;;;;5100708;28;20052;-79
2021/12/12 02:49:42;;;;;;;49.85;31.55;;;4.20;99.90;;;;;;5094619;28;20039;-80
2021/12/12 02:52:14;;;;;;;46.92;31.40;;;4.20;99.90;;;;;;5094770;28;20094;-80
2021/12/12 02:54:40;;;;;;;47.45;30.50;;;4.20;99.90;;;;;;5098381;28;20040;-74
2021/12/12 02:57:06;;;;;;;47.33;31.52;;;4.20;99.90;;;;;;5104963;28;20040;-80
2021/12/12 02:59:34;;;;;;;44.58;29.42;;;4.20;99.90;;;;;;5096641;28;20043;-81
2021/12/12 03:02:12;;;;;;;46.22;29.23;;;4.30;99.90;;;;;;5092727;28;20522;-80
2021/12/12 03:04:39;;;;;;;41.10;28.90;;;4.20;99.90;;;;;;5093490;28;20043;-80
2021/12/12 03:07:07;;;;;;;46.70;29.50;;;4.20;99.90;;;;;;5093596;28;20052;-80
2021/12/12 03:09:38;;;;;;;46.60;29.10;;;4.20;99.90;;;;;;5095428;28;20052;-81
2021/12/12 03:12:11;;;;;;;43.55;28.38;;;4.30;99.90;;;;;;5102984;28;20055;-78
2021/12/12 03:14:37;;;;;;;43.90;28.25;;;4.30;99.90;;;;;;5093902;28;20393;-78
2021/12/12 03:17:07;;;;;;;43.15;28.42;;;4.30;99.90;;;;;;5093245;28;20051;-80
2021/12/12 03:19:33;;;;;;;43.38;27.80;;;4.30;99.90;;;;;;5094378;28;20040;-79
2021/12/12 03:21:59;;;;;;;45.65;27.98;;;4.30;99.90;;;;;;5102352;28;20032;-81
2021/12/12 03:24:27;;;;;;;42.80;26.80;;;4.30;99.90;;;;;;5093383;28;20051;-77
2021/12/12 03:26:59;;;;;;;44.55;26.80;;;4.30;99.90;;;;;;5092651;28;20505;-80
2021/12/12 03:29:27;;;;;;;44.97;26.30;;;4.30;99.90;;;;;;5093133;28;20044;-80
2021/12/12 03:32:03;;;;;;;41.65;27.13;;;4.30;99.90;;;;;;5092649;28;20056;-79
2021/12/12 03:34:33;;;;;;;39.05;25.73;;;4.40;99.90;;;;;;5093568;28;20055;-79
2021/12/12 03:37:00;;;;;;;43.90;26.35;;;4.40;99.90;;;;;;5092894;28;20044;-80
2021/12/12 03:39:29;;;;;;;38.88;25.73;;;4.40;99.90;;;;;;5093574;28;20400;-79
2021/12/12 03:41:58;;;;;;;36.53;25.00;;;4.40;99.90;;;;;;5094145;28;20467;-78
2021/12/12 03:44:28;;;;;;;39.85;25.40;;;4.40;99.90;;;;;;5093385;28;20054;-79
2021/12/12 03:47:03;;;;;;;38.57;25.07;;;4.40;99.90;;;;;;5093102;28;20396;-79
2021/12/12 03:49:32;;;;;;;36.95;24.45;;;4.40;99.90;;;;;;5092909;28;20050;-78
2021/12/12 03:51:58;;;;;;;39.60;25.38;;;4.40;99.90;;;;;;5092519;28;20044;-78
2021/12/12 03:54:24;;;;;;;38.15;25.85;;;4.40;99.90;;;;;;5093233;28;20404;-79
2021/12/12 03:56:50;;;;;;;42.35;24.90;;;4.50;99.90;;;;;;5092357;28;20035;-77
2021/12/12 03:59:15;;;;;;;37.53;24.63;;;4.40;99.90;;;;;;5092273;28;20093;-80
2021/12/12 04:01:48;;;;;;;33.53;24.40;;;4.50;99.90;;;;;;5094477;28;20043;-80
2021/12/12 04:04:29;;;;;;;35.35;24.52;;;4.50;99.90;;;;;;5092981;28;20127;-79
2021/12/12 04:06:57;;;;;;;35.03;23.88;;;4.50;99.90;;;;;;5092509;28;20052;-80
2021/12/12 04:09:23;;;;;;;39.88;24.10;;;4.50;99.90;;;;;;5092915;28;20051;-77
2021/12/12 04:11:53;;;;;;;34.17;24.20;;;4.50;99.90;;;;;;5092207;28;20044;-73
2021/12/12 04:14:20;;;;;;;36.75;23.85;;;4.50;99.90;;;;;;5092772;28;20070;-80
2021/12/12 04:16:50;;;;;;;37.30;23.45;;;4.50;99.90;;;;;;5106640;28;20086;-80
2021/12/12 04:19:16;;;;;;;34.45;23.25;;;4.50;99.90;;;;;;5101635;28;20039;-78
2021/12/12 04:21:43;;;;;;;39.33;24.38;;;4.50;99.90;;;;;;5099076;28;20537;-75
2021/12/12 04:24:10;;;;;;;35.95;22.85;;;4.50;99.90;;;;;;5091782;28;20040;-76
2021/12/12 04:26:40;;;;;;;35.88;23.08;;;4.60;99.90;;;;;;5098095;28;20082;-79
2021/12/12 04:29:16;;;;;;;35.67;22.83;;;4.60;99.90;;;;;;5111066;28;20685;-80
2021/12/12 04:31:48;;;;;;;38.15;23.38;;;4.60;99.90;;;;;;5105868;28;20354;-77
2021/12/12 04:34:14;;;;;;;36.30;22.50;;;4.60;99.90;;;;;;5099379;28;20052;-78
2021/12/12 04:36:42;;;;;;;37.28;23.15;;;4.60;99.90;;;;;;5107510;28;20039;-79
2021/12/12 04:39:15;;;;;;;32.28;20.73;;;4.70;99.90;;;;;;5112484;28;20043;-78
2021/12/12 04:41:42;;;;;;;34.92;21.88;;;4.60;99.90;;;;;;5094475;28;20071;-79
2021/12/12 04:44:09;;;;;;;31.27;20.73;;;4.70;99.90;;;;;;5091601;28;20510;-77
2021/12/12 04:49:55;;;;;;;32.65;20.58;;;4.70;99.90;;;;;;5092134;28;20439;-81
2021/12/12 04:52:45;;;;;;;31.25;21.38;;;4.70;99.90;;;;;;5111817;28;20044;-78
2021/12/12 04:55:27;;;;;;;34.60;20.67;;;4.70;99.90;;;;;;5102015;28;20445;-77
2021/12/12 04:58:19;;;;;;;27.30;19.95;;;4.80;99.90;;;;;;5092662;28;20083;-78
2021/12/12 05:00:54;;;;;;;27.63;19.70;;;4.80;99.90;;;;;;5090712;28;20048;-77
2021/12/12 05:03:40;;;;;;;28.30;19.50;;;4.80;99.90;;;;;;5097065;28;20039;-79
2021/12/12 05:06:13;;;;;;;28.20;19.65;;;4.80;99.90;;;;;;5098599;28;20044;-78
2021/12/12 05:08:46;;;;;;;28.38;19.30;;;4.80;99.90;;;;;;5092041;28;20544;-77
2021/12/12 05:11:20;;;;;;;28.77;19.00;;;4.80;99.90;;;;;;5091448;28;20048;-76
2021/12/12 05:13:56;;;;;;;29.38;19.75;;;4.80;99.90;;;;;;5092083;28;20044;-79
2021/12/12 05:16:27;;;;;;;29.10;18.58;;;4.90;99.90;;;;;;5094768;28;20048;-79
2021/12/12 05:19:00;;;;;;;;;;;4.90;99.90;;;;;;5101843;28;20048;-77
2021/12/12 05:21:31;;;;;;;29.10;18.90;;;4.90;99.90;;;;;;5083241;28;19965;-77
2021/12/12 05:24:01;;;;;;;24.65;17.50;;;4.90;99.90;;;;;;5092123;28;20061;-73
2021/12/12 05:26:32;;;;;;;28.50;18.13;;;4.90;99.90;;;;;;5080297;28;20103;-78
2021/12/12 05:29:17;;;;;;;24.20;16.65;;;4.90;99.90;;;;;;5096434;28;20048;-74
2021/12/12 05:31:52;;;;;;;25.80;17.65;;;5.00;99.90;;;;;;5108508;27;20056;-79
2021/12/12 05:34:23;;;;;;;23.42;15.73;;;5.00;99.90;;;;;;5078311;28;20650;-76
2021/12/12 05:36:52;;;;;;;20.90;15.35;;;5.00;99.90;;;;;;5114979;28;20040;-78
2021/12/12 05:39:19;;;;;;;21.73;15.10;;;5.10;99.90;;;;;;5112277;28;20059;-78
2021/12/12 05:41:47;;;;;;;18.98;14.50;;;5.00;99.90;;;;;;5095360;28;20040;-79
2021/12/12 05:44:14;;;;;;;18.05;14.48;;;5.00;99.90;;;;;;5094911;28;20063;-78
2021/12/12 05:46:41;;;;;;;19.52;13.95;;;5.10;99.90;;;;;;5095459;28;20141;-79
2021/12/12 05:49:07;;;;;;;18.23;13.82;;;5.00;99.90;;;;;;5113735;28;20035;-79
2021/12/12 05:51:34;;;;;;;18.30;14.02;;;5.10;99.90;;;;;;5114942;28;20567;-79
2021/12/12 05:54:00;;;;;;;17.70;12.82;;;5.00;99.90;;;;;;5096719;28;20113;-74
2021/12/12 05:56:29;;;;;;;18.00;13.23;;;5.00;99.90;;;;;;5093219;28;20074;-78
2021/12/12 05:58:56;;;;;;;18.27;12.57;;;5.00;99.90;;;;;;5095384;28;20036;-79
2021/12/12 06:01:23;;;;;;;18.08;13.70;;;5.00;99.90;;;;;;5093780;28;20671;-78
2021/12/12 06:03:51;;;;;;;20.05;13.07;;;5.00;99.90;;;;;;5103279;28;20040;-79
2021/12/12 06:06:35;;;;;;;18.10;13.60;;;5.00;99.90;;;;;;5094106;28;20055;-78
2021/12/12 06:09:04;;;;;;;14.23;12.20;;;5.10;99.90;;;;;;5094763;28;20111;-79
2021/12/12 06:11:35;;;;;;;17.45;12.98;;;5.10;99.90;;;;;;5093475;28;20052;-77
2021/12/12 06:14:03;;;;;;;19.25;13.55;;;5.10;99.90;;;;;;5095524;28;20117;-78
2021/12/12 06:16:31;;;;;;;17.90;13.10;;;5.10;99.90;;;;;;5095116;28;20105;-77
2021/12/12 06:19:12;;;;;;;15.32;12.52;;;5.10;99.90;;;;;;5109246;28;20044;-78
2021/12/12 06:21:38;;;;;;;16.45;12.65;;;5.10;99.90;;;;;;5107147;28;20102;-80
2021/12/12 06:24:05;;;;;;;19.58;12.98;;;5.10;99.90;;;;;;5094793;28;20076;-73
2021/12/12 06:26:32;;;;;;;15.70;12.60;;;5.00;99.90;;;;;;5094047;28;20515;-79
2021/12/12 06:28:58;;;;;;;17.27;13.30;;;5.10;99.90;;;;;;5111953;28;20046;-80
2021/12/12 06:31:25;;;;;;;16.33;12.50;;;5.10;99.90;;;;;;5100132;28;20909;-79
2021/12/12 06:33:53;;;;;;;16.10;12.63;;;5.10;99.90;;;;;;5095179;28;20463;-81
2021/12/12 06:36:19;;;;;;;17.02;12.30;;;5.10;99.90;;;;;;5094001;28;20040;-80
2021/12/12 06:38:50;;;;;;;19.38;13.35;;;5.10;99.90;;;;;;5108601;28;20050;-80
2021/12/12 06:41:16;;;;;;;;;;;5.00;99.90;;;;;;5098490;28;20522;-81
2021/12/12 06:43:42;;;;;;;16.15;12.68;;;5.10;99.90;;;;;;5094453;28;20359;-79
2021/12/12 06:46:09;;;;;;;17.45;13.20;;;5.20;99.90;;;;;;5093416;28;20108;-73
2021/12/12 06:48:38;;;;;;;19.48;13.38;;;5.10;99.90;;;;;;5093800;28;20040;-77
2021/12/12 06:51:04;;;;;;;18.67;13.13;;;5.10;99.90;;;;;;5094339;28;20217;-80
2021/12/12 06:53:34;;;;;;;17.05;13.30;;;5.20;99.90;;;;;;5098419;28;20126;-79
2021/12/12 06:56:02;;;;;;;16.85;12.60;;;5.20;99.90;;;;;;5094150;28;20060;-81
2021/12/12 06:58:30;;;;;;;18.23;13.27;;;5.20;99.90;;;;;;5093939;28;20048;-80
2021/12/12 07:01:03;;;;;;;18.40;14.13;;;5.20;99.90;;;;;;5094067;28;20051;-80
2021/12/12 07:03:30;;;;;;;19.35;14.32;;;5.30;99.90;;;;;;5104220;28;20047;-80
2021/12/12 07:05:56;;;;;;;17.48;14.05;;;5.20;99.90;;;;;;5092270;28;20484;-81
2021/12/12 07:08:23;;;;;;;19.98;14.63;;;5.20;99.90;;;;;;5105597;28;20047;-80
2021/12/12 07:10:50;;;;;;;19.40;14.23;;;5.20;99.90;;;;;;5108218;28;20051;-80
2021/12/12 07:13:16;;;;;;;22.52;14.80;;;5.30;99.90;;;;;;5093402;28;20086;-80
2021/12/12 07:15:47;;;;;;;19.00;15.27;;;5.30;99.90;;;;;;5094141;28;20040;-80
2021/12/12 07:18:16;;;;;;;20.65;15.00;;;5.30;99.90;;;;;;5102781;28;20047;-78
2021/12/12 07:20:46;;;;;;;23.63;15.65;;;5.20;99.90;;;;;;5114310;28;20044;-80
2021/12/12 07:23:13;;;;;;;21.52;15.60;;;5.30;99.90;;;;;;5109839;27;20505;-74
2021/12/12 07:25:40;;;;;;;20.92;15.73;;;5.30;99.90;;;;;;5104576;28;20489;-78
2021/12/12 07:28:07;;;;;;;21.58;16.13;;;5.30;99.90;;;;;;5056062;28;20485;-75
2021/12/12 07:30:34;;;;;;;23.33;16.55;;;5.30;99.90;;;;;;5106091;28;20109;-81
2021/12/12 07:33:03;;;;;;;23.38;16.40;;;5.40;99.90;;;;;;5093786;28;20507;-81
2021/12/12 07:35:32;;;;;;;23.30;16.38;;;5.40;99.90;;;;;;5091932;28;20485;-80
2021/12/12 07:37:58;;;;;;;24.10;17.23;;;5.30;99.90;;;;;;5093612;28;20039;-81
2021/12/12 07:40:24;;;;;;;23.98;16.67;;;5.40;99.90;;;;;;5092332;28;20435;-80
2021/12/12 07:42:51;;;;;;;24.92;17.00;;;5.40;99.90;;;;;;5105972;28;20043;-81
2021/12/12 07:45:20;;;;;;;26.38;17.40;;;5.30;99.90;;;;;;5113115;28;20112;-81
2021/12/12 07:47:47;;;;;;;26.77;17.55;;;5.40;99.90;;;;;;5107368;28;20408;-81
2021/12/12 07:50:15;;;;;;;25.02;17.58;;;5.40;99.90;;;;;;5112556;28;20494;-81
2021/12/12 07:52:42;;;;;;;24.90;17.38;;;5.40;99.90;;;;;;5102194;28;20063;-80
2021/12/12 07:55:09;;;;;;;28.30;18.13;;;5.40;99.90;;;;;;5092266;28;20087;-82
2021/12/12 07:57:35;;;;;;;29.77;18.55;;;5.40;99.90;;;;;;5092002;28;20047;-82
2021/12/12 08:00:03;;;;;;;29.10;18.10;;;5.50;99.90;;;;;;5092968;28;20032;-83
2021/12/12 08:02:30;;;;;;;30.27;19.23;;;5.60;99.90;;;;;;5092756;28;20058;-82
2021/12/12 08:04:56;;;;;;;32.22;19.42;;;5.50;99.90;;;;;;5096751;28;20047;-82
2021/12/12 08:07:24;;;;;;;33.58;20.08;;;5.50;99.90;;;;;;5100856;28;20040;-83
2021/12/12 08:09:51;;;;;;;32.22;19.92;;;5.60;99.90;;;;;;5094979;28;20053;-82
2021/12/12 08:12:22;;;;;;;33.33;20.10;;;5.60;99.90;;;;;;5112552;28;20399;-74
2021/12/12 08:14:49;;;;;;;30.63;19.48;;;5.60;99.90;;;;;;5105214;28;20082;-83
2021/12/12 08:17:16;;;;;;;33.85;20.05;;;5.70;99.90;;;;;;5091785;28;20048;-82
2021/12/12 08:19:42;;;;;;;30.88;19.25;;;5.70;99.90;;;;;;5081857;28;20040;-79
2021/12/12 08:22:11;;;;;;;33.67;20.10;;;5.70;99.90;;;;;;5096651;28;20052;-81
2021/12/12 08:24:38;;;;;;;33.53;19.98;;;5.70;99.90;;;;;;5089222;28;20047;-78
2021/12/12 08:27:09;;;;;;;32.58;20.15;;;5.70;99.90;;;;;;5088795;28;20105;-77
2021/12/12 08:29:36;;;;;;;33.38;20.70;;;5.70;99.90;;;;;;5089662;28;20558;-81
2021/12/12 08:32:05;;;;;;;31.23;19.88;;;5.70;99.90;;;;;;5086041;28;20412;-81
2021/12/12 08:34:31;;;;;;;36.03;20.35;;;5.70;99.90;;;;;;5093826;28;20040;-83
2021/12/12 08:36:58;;;;;;;31.95;19.40;;;5.80;99.90;;;;;;5097617;28;20051;-81
2021/12/12 08:39:27;;;;;;;32.78;19.38;;;5.80;99.90;;;;;;5091842;28;20114;-84
2021/12/12 08:41:54;;;;;;;32.45;19.73;;;5.80;99.90;;;;;;5097726;28;20046;-76
2021/12/12 08:44:20;;;;;;;30.55;18.88;;;5.90;99.90;;;;;;5089932;28;20079;-75
2021/12/12 08:46:49;;;;;;;32.50;19.38;;;5.90;99.90;;;;;;5099279;28;20086;-82
2021/12/12 08:49:16;;;;;;;29.92;19.17;;;5.90;99.90;;;;;;5104082;28;20036;-77
2021/12/12 08:51:54;;;;;;;26.42;17.92;;;5.90;99.90;;;;;;5084162;28;20059;-79
2021/12/12 08:54:26;;;;;;;29.60;19.15;;;6.00;99.90;;;;;;5087930;28;20130;-77
2021/12/12 08:57:04;;;;;;;29.75;18.42;;;5.90;99.90;;;;;;5088431;28;20083;-77
2021/12/12 08:59:34;;;;;;;27.45;17.10;;;6.00;99.90;;;;;;5088583;28;20114;-83
2021/12/12 09:02:07;;;;;;;25.95;17.83;;;6.00;99.90;;;;;;5104181;28;20047;-77
2021/12/12 09:04:39;;;;;;;28.45;17.90;;;6.10;99.90;;;;;;5112755;27;20113;-83
2021/12/12 09:07:07;;;;;;;29.05;17.05;;;6.10;99.90;;;;;;5113144;28;20113;-76
2021/12/12 09:09:39;;;;;;;27.17;16.60;;;6.10;99.90;;;;;;5098821;28;20496;-82
2021/12/12 09:12:14;;;;;;;25.17;16.00;;;6.20;99.90;;;;;;5095668;28;20090;-83
2021/12/12 09:14:47;;;;;;;24.55;16.08;;;6.30;99.90;;;;;;5100938;28;20520;-84
2021/12/12 09:17:20;;;;;;;24.50;15.80;;;6.30;99.90;;;;;;5095593;28;20506;-81
2021/12/12 09:19:59;;;;;;;26.42;16.42;;;6.40;99.90;;;;;;5098933;28;20080;-82
2021/12/12 09:22:32;;;;;;;25.08;16.08;;;6.40;99.90;;;;;;5078643;28;20556;-75
2021/12/12 09:25:00;;;;;;;24.08;15.95;;;6.40;99.90;;;;;;5093238;28;20052;-83
2021/12/12 09:27:46;;;;;;;26.08;15.80;;;6.40;99.90;;;;;;5096538;28;20040;-85
2021/12/12 09:30:21;;;;;;;22.95;14.27;;;6.40;99.90;;;;;;5088851;28;20040;-81
2021/12/12 09:33:18;;;;;;;25.95;16.10;;;6.50;99.90;;;;;;5095439;28;20058;-83
2021/12/12 09:35:59;;;;;;;23.02;15.00;;;6.50;99.90;;;;;;5096386;28;20063;-82
2021/12/12 09:38:30;;;;;;;24.05;16.10;;;6.50;99.90;;;;;;5084762;28;20087;-75
2021/12/12 09:41:30;;;;;;;25.25;15.93;;;6.50;99.90;;;;;;5078164;28;20051;-78
2021/12/12 09:44:29;;;;;;;26.23;17.05;;;6.60;99.90;;;;;;5068258;28;20102;-80
2021/12/12 09:47:27;;;;;;;26.45;16.55;;;6.60;99.90;;;;;;5078444;28;20052;-80
2021/12/12 09:53:17;;;;;;;29.63;17.20;;;6.70;99.90;;;;;;5116141;28;20091;-79
2021/12/12 09:56:03;;;;;;;28.60;17.08;;;6.70;99.90;;;;;;5115771;28;20083;-80
2021/12/12 09:58:55;;;;;;;30.20;17.55;;;6.80;99.90;;;;;;5115552;28;20043;-76
2021/12/12 10:01:36;;;;;;;32.13;18.25;;;6.80;99.90;;;;;;5115449;28;20457;-79
2021/12/12 10:04:23;;;;;;;32.85;18.70;;;6.90;99.90;;;;;;5114252;28;20044;-79
2021/12/12 10:07:09;;;;;;;32.90;17.58;;;6.90;99.90;;;;;;5115232;28;20039;-79
2021/12/12 10:09:58;;;;;;;31.70;17.63;;;6.90;99.90;;;;;;5115327;28;20123;-78
2021/12/12 10:12:31;;;;;;;29.52;17.92;;;6.90;99.90;;;;;;5115736;27;20048;-79
2021/12/12 10:15:09;;;;;;;29.20;18.10;;;6.90;99.90;;;;;;5115333;28;20047;-79
2021/12/12 10:18:02;;;;;;;32.78;17.67;;;6.90;99.90;;;;;;5115186;28;20050;-79
2021/12/12 10:20:40;;;;;;;29.75;17.85;;;7.00;99.90;;;;;;5113838;28;20472;-79
2021/12/12 10:23:21;;;;;;;30.63;16.65;;;7.00;99.90;;;;;;5115504;28;20118;-79
2021/12/12 10:26:00;;;;;;;28.40;17.02;;;7.00;99.90;;;;;;5114902;28;20047;-79
2021/12/12 10:28:32;;;;;;;27.48;17.38;;;7.10;99.90;;;;;;5115435;28;20488;-79
2021/12/12 10:31:16;;;;;;;30.33;17.45;;;7.10;99.90;;;;;;5115075;28;20188;-79
2021/12/12 10:34:12;;;;;;;29.70;16.10;;;7.10;99.90;;;;;;5114805;28;20051;-80
2021/12/12 10:36:46;;;;;;;27.33;17.13;;;7.20;99.90;;;;;;5074222;28;20045;-79
2021/12/12 10:39:20;;;;;;;27.80;16.42;;;7.20;99.90;;;;;;5074620;28;20084;-79
2021/12/12 10:41:59;;;;;;;28.75;16.83;;;7.30;99.90;;;;;;5074055;28;20044;-79
2021/12/12 10:44:54;;;;;;;25.23;15.23;;;7.30;99.90;;;;;;5074750;28;20045;-79
2021/12/12 10:47:35;;;;;;;28.05;15.93;;;7.30;99.90;;;;;;5073083;28;20072;-79
2021/12/12 10:50:04;;;;;;;24.50;15.18;;;7.30;99.90;;;;;;5080942;28;20127;-79
2021/12/12 10:52:38;;;;;;;25.95;15.60;;;7.40;99.90;;;;;;5094558;28;20048;-79
2021/12/12 10:55:28;;;;;;;25.08;15.02;;;7.40;99.90;;;;;;5094905;28;20048;-79
2021/12/12 10:58:12;;;;;;;27.92;15.98;;;7.50;99.90;;;;;;5093991;28;20048;-79
2021/12/12 11:00:55;;;;;;;23.70;15.13;;;7.50;99.90;;;;;;5093848;28;20044;-79
2021/12/12 11:03:30;;;;;;;22.17;14.13;;;7.50;99.90;;;;;;5094382;28;20469;-80
2021/12/12 11:06:05;;;;;;;23.08;14.85;;;7.60;99.90;;;;;;5105720;28;20050;-79
2021/12/12 11:08:39;;;;;;;24.92;14.93;;;7.60;99.90;;;;;;5114790;28;20051;-79
2021/12/12 11:11:21;;;;;;;23.00;14.73;;;7.60;99.90;;;;;;5114455;28;20040;-79
2021/12/12 11:13:58;;;;;;;21.33;13.98;;;7.70;99.90;;;;;;5114355;28;20396;-79
2021/12/12 11:16:57;;;;;;;19.30;13.60;;;7.70;99.90;;;;;;5114778;28;20070;-79
2021/12/12 11:19:41;;;;;;;20.90;13.35;;;7.70;99.90;;;;;;5114640;28;20453;-79
2021/12/12 11:22:19;;;;;;;18.33;12.95;;;7.80;99.90;;;;;;5109198;28;20040;-79
2021/12/12 11:24:56;;;;;;;18.83;12.57;;;7.80;99.90;;;;;;5111719;28;20074;-79
2021/12/12 11:27:29;;;;;;;19.60;12.30;;;7.90;99.90;;;;;;5093963;28;20127;-79
2021/12/12 11:30:11;;;;;;;16.52;11.75;;;7.90;99.90;;;;;;5093206;28;20119;-79
2021/12/12 11:32:38;;;;;;;16.70;11.32;;;7.90;99.90;;;;;;5093639;28;20058;-73
2021/12/12 11:35:10;;;;;;;16.48;11.45;;;7.90;99.90;;;;;;5093721;28;20059;-79
2021/12/12 11:38:10;;;;;;;15.15;11.30;;;7.90;99.90;;;;;;5073599;28;20095;-79
2021/12/12 11:41:03;;;;;;;15.30;11.00;;;7.90;99.90;;;;;;5099104;28;20108;-79
2021/12/12 11:43:37;;;;;;;14.10;11.02;;;8.00;99.90;;;;;;5084214;28;20048;-81
2021/12/12 11:46:28;;;;;;;15.82;11.70;;;7.90;99.90;;;;;;5091883;28;20075;-78
2021/12/12 11:49:16;;;;;;;15.50;11.55;;;8.00;99.90;;;;;;5091039;28;20048;-81
2021/12/12 11:52:03;;;;;;;16.58;10.77;;;8.00;99.90;;;;;;5093056;28;20186;-80
2021/12/12 11:54:42;;;;;;;13.25;10.13;;;8.00;99.90;;;;;;5093255;28;20048;-81
2021/12/12 11:57:18;;;;;;;14.43;10.63;;;8.00;99.90;;;;;;5093551;28;20054;-81
2021/12/12 12:00:09;;;;;;;15.73;10.70;;;8.00;99.90;;;;;;5092311;28;20040;-81
2021/12/12 12:03:09;;;;;;;14.27;11.00;;;8.10;99.90;;;;;;5092303;28;20093;-80
2021/12/12 12:05:47;;;;;;;16.30;11.23;;;8.10;99.90;;;;;;5092222;28;20044;-81
2021/12/12 12:08:26;;;;;;;17.80;11.65;;;8.10;99.90;;;;;;5093038;28;20052;-80
2021/12/12 12:11:25;;;;;;;16.50;12.02;;;8.10;99.90;;;;;;5092050;28;20032;-80
2021/12/12 12:13:57;;;;;;;18.23;12.68;;;8.10;99.90;;;;;;5090477;28;20047;-76
2021/12/12 12:16:34;;;;;;;20.70;13.50;;;8.10;99.90;;;;;;5089690;28;20059;-80
2021/12/12 12:19:37;;;;;;;21.60;13.55;;;8.10;99.90;;;;;;5088829;28;20036;-78
2021/12/12 12:22:28;;;;;;;21.73;13.77;;;8.10;99.90;;;;;;5084311;28;20059;-80
2021/12/12 12:25:14;;;;;;;21.27;14.75;;;8.10;99.90;;;;;;5090781;28;20056;-80
2021/12/12 12:27:51;;;;;;;23.90;14.57;;;8.20;99.90;;;;;;5090075;28;20051;-80
2021/12/12 12:30:35;;;;;;;22.05;14.10;;;8.20;99.90;;;;;;5088173;28;20212;-78
2021/12/12 12:33:12;;;;;;;24.20;14.80;;;8.20;99.90;;;;;;5105157;28;20059;-74
2021/12/12 12:36:09;;;;;;;24.63;14.55;;;8.20;99.90;;;;;;5108821;28;20044;-80
2021/12/12 12:39:12;;;;;;;23.80;15.32;;;8.20;99.90;;;;;;5073623;28;20087;-80
2021/12/12 12:42:02;;;;;;;20.90;14.02;;;8.20;99.90;;;;;;5085825;28;20070;-80
2021/12/12 12:44:49;;;;;;;22.10;14.10;;;8.20;99.90;;;;;;5105811;28;20074;-80
2021/12/12 12:47:39;;;;;;;25.40;15.13;;;8.20;99.90;;;;;;5095631;28;20048;-80
2021/12/12 12:50:42;;;;;;;24.08;14.93;;;8.20;99.90;;;;;;5097675;28;20040;-80
2021/12/12 12:53:13;;;;;;;24.45;15.32;;;8.20;99.90;;;;;;5101157;28;20183;-80
2021/12/12 12:56:09;;;;;;;23.65;14.38;;;8.30;99.90;;;;;;5109921;28;20048;-80
2021/12/12 12:59:00;;;;;;;28.58;16.42;;;8.30;99.90;;;;;;5109844;28;20050;-80
2021/12/12 13:01:39;;;;;;;26.05;15.43;;;8.30;99.90;;;;;;5071554;28;20049;-76
2021/12/12 13:04:09;;;;;;;27.52;15.43;;;8.30;99.90;;;;;;5083572;28;20071;-80
2021/12/12 13:06:54;;;;;;;28.48;15.30;;;8.30;99.90;;;;;;5082304;28;20123;-76
2021/12/12 13:09:33;;;;;;;30.60;16.40;;;8.40;99.90;;;;;;5084080;28;20040;-80
2021/12/12 13:12:22;;;;;;;27.42;16.42;;;8.40;99.90;;;;;;5093957;28;20495;-80
2021/12/12 13:14:52;;;;;;;29.90;16.02;;;8.40;99.90;;;;;;5098554;28;20071;-76
2021/12/12 13:17:36;;;;;;;26.90;16.43;;;8.40;99.90;;;;;;5093336;28;20047;-80
2021/12/12 13:20:22;;;;;;;31.00;17.13;;;8.50;99.90;;;;;;5092145;28;20512;-80
2021/12/12 13:23:16;;;;;;;28.90;16.13;;;8.50;99.90;;;;;;5100127;28;20047;-74
2021/12/12 13:25:59;;;;;;;30.38;17.30;;;8.50;99.90;;;;;;5092901;28;20036;-80
2021/12/12 13:29:03;;;;;;;31.75;17.45;;;8.50;99.90;;;;;;5092401;28;20055;-80
2021/12/12 13:31:39;;;;;;;33.22;17.05;;;8.50;99.90;;;;;;5095528;28;20418;-80
2021/12/12 13:34:24;;;;;;;31.95;17.75;;;8.60;99.90;;;;;;5096571;28;20050;-80